Lemhi, Idaho
Current Conditions -  °F | °C
As of 9:35 AM on Tuesday 21 Oct 2014 (Local Time) from KSMN Reporting Station
Overcast Overcast  
Wind Chill: 43°   Ceiling: 4600
Heat Index: 46°   Visibility: 10mi
Dew Point: 43°   Wind: 7mph
Humidity: 87%   Direction: 140°SE
Pressure: 29.82"   Gusts: NA
Location:  44.85°N, 113.62°W
Report Text: KSMN 211535Z AUTO 14006KT 10SM SCT037 BKN046 OVC050 08/06 A2982 RMK AO1 LTG DSNT N TSE35 P0013
Loading
Personal Weather Stations






























Interactive Weather Map
Tropical Storm Tracking
New forecast layout! Learn more

10-Day Weather Forecast

Advertisements
Track Severe Weather on mobile